createdAt,value
2022-08-08T00:00:53.598Z,18.16
2022-08-08T00:06:02.658Z,18.39
2022-08-08T00:11:15.116Z,18.55
2022-08-08T00:16:25.828Z,18.43
2022-08-08T00:21:39.637Z,18.33
2022-08-08T00:26:51.703Z,18.76
2022-08-08T00:32:20.846Z,18.35
2022-08-08T00:37:46.948Z,18.37
2022-08-08T00:43:23.798Z,18.80
2022-08-08T00:49:22.054Z,18.70
2022-08-08T00:54:55.132Z,18.72
2022-08-08T01:00:11.582Z,18.70
2022-08-08T01:06:02.269Z,18.71
2022-08-08T01:12:03.391Z,18.68
2022-08-08T01:17:52.082Z,18.46
2022-08-08T01:24:05.384Z,18.73
2022-08-08T01:30:03.200Z,18.47
2022-08-08T01:35:53.533Z,18.13
2022-08-08T01:41:15.856Z,18.32
2022-08-08T01:46:47.288Z,18.15
2022-08-08T01:52:42.105Z,18.66
2022-08-08T01:58:11.630Z,18.36
2022-08-08T02:03:54.629Z,18.33
2022-08-08T02:09:00.846Z,18.68
2022-08-08T02:14:20.644Z,18.48
2022-08-08T02:20:07.456Z,18.58
2022-08-08T02:25:07.454Z,18.05
2022-08-08T02:30:24.701Z,17.77
2022-08-08T02:36:05.272Z,18.43
2022-08-08T02:42:04.043Z,18.44
2022-08-08T02:47:26.055Z,18.18
2022-08-08T02:52:57.185Z,18.02
2022-08-08T02:58:47.577Z,18.69
2022-08-08T03:05:02.557Z,18.70
2022-08-08T03:10:44.688Z,18.37
2022-08-08T03:16:39.870Z,18.39
2022-08-08T03:21:58.761Z,18.32
2022-08-08T03:27:14.379Z,18.21
2022-08-08T03:32:37.078Z,18.38
2022-08-08T03:37:59.341Z,18.26
2022-08-08T03:43:16.504Z,18.10
2022-08-08T03:49:09.582Z,18.29
2022-08-08T03:53:50.759Z,17.31
2022-08-08T03:59:02.760Z,17.09
2022-08-08T04:04:08.512Z,17.13
2022-08-08T04:09:17.823Z,17.80
2022-08-08T04:14:35.817Z,18.34
2022-08-08T04:19:41.412Z,18.20
2022-08-08T04:24:48.729Z,18.18
2022-08-08T04:30:16.974Z,18.04
2022-08-08T04:35:22.669Z,17.65
2022-08-08T04:40:27.837Z,17.94
2022-08-08T04:45:35.041Z,18.18
2022-08-08T04:50:46.124Z,18.30
2022-08-08T04:55:57.079Z,18.49
2022-08-08T05:01:10.799Z,18.63
2022-08-08T05:06:18.381Z,18.77
2022-08-08T05:11:39.014Z,18.80
2022-08-08T05:16:53.884Z,18.98
2022-08-08T05:22:08.983Z,19.66
2022-08-08T05:27:17.652Z,19.44
2022-08-08T05:32:24.376Z,19.72
2022-08-08T05:37:51.910Z,19.19
2022-08-08T05:43:01.631Z,19.50
2022-08-08T05:48:09.808Z,19.92
2022-08-08T05:53:23.010Z,19.50
2022-08-08T05:58:53.650Z,19.18
2022-08-08T06:04:13.543Z,19.17
2022-08-08T06:09:58.519Z,19.95
2022-08-08T06:14:48.969Z,19.88
2022-08-08T06:19:58.167Z,19.86
2022-08-08T06:25:03.280Z,20.66
2022-08-08T06:30:11.937Z,20.02
2022-08-08T06:36:08.946Z,20.77
2022-08-08T06:41:06.106Z,20.88
2022-08-08T06:46:16.230Z,20.11
2022-08-08T06:51:31.260Z,20.24
2022-08-08T06:56:52.886Z,20.32
2022-08-08T07:02:27.898Z,20.32
2022-08-08T07:07:42.332Z,20.44
2022-08-08T07:12:54.351Z,20.65
2022-08-08T07:18:35.919Z,21.26
2022-08-08T07:24:01.080Z,21.87
2022-08-08T07:29:11.603Z,21.70
2022-08-08T07:34:31.666Z,20.79
2022-08-08T07:39:56.021Z,21.02
2022-08-08T07:45:05.149Z,21.20
2022-08-08T07:50:15.349Z,21.09
2022-08-08T07:55:30.299Z,21.67
2022-08-08T08:00:45.336Z,21.85
2022-08-08T08:05:56.129Z,22.10
2022-08-08T08:11:18.454Z,21.26
2022-08-08T08:16:26.498Z,21.88
2022-08-08T08:21:57.770Z,21.15
2022-08-08T08:27:17.571Z,21.48
2022-08-08T08:32:35.815Z,22.04
2022-08-08T08:38:14.673Z,22.44
2022-08-08T08:43:18.588Z,22.08
2022-08-08T08:48:24.630Z,22.70
2022-08-08T08:53:56.455Z,22.57
2022-08-08T08:59:06.408Z,22.69
2022-08-08T09:04:30.929Z,21.13
2022-08-08T09:09:47.622Z,21.35
2022-08-08T09:15:01.641Z,22.01
2022-08-08T09:22:00.860Z,21.53
2022-08-08T09:25:54.460Z,22.70
2022-08-08T09:31:12.744Z,21.93
2022-08-08T09:36:23.448Z,21.97
2022-08-08T09:41:54.777Z,22.87
2022-08-08T09:47:26.700Z,23.16
2022-08-08T09:52:56.074Z,23.93
2022-08-08T09:58:06.321Z,24.56
2022-08-08T10:03:15.920Z,23.85
2022-08-08T10:08:23.914Z,23.44
2022-08-08T10:13:35.554Z,22.99
2022-08-08T10:18:41.697Z,23.18
2022-08-08T10:23:56.001Z,22.84
2022-08-08T10:29:20.762Z,23.38
2022-08-08T10:34:43.754Z,24.26
2022-08-08T10:39:54.740Z,23.75
2022-08-08T10:45:08.152Z,23.22
2022-08-08T10:50:15.503Z,23.28
2022-08-08T10:55:40.020Z,22.83
2022-08-08T11:00:48.732Z,23.18
2022-08-08T11:06:00.606Z,22.88
2022-08-08T11:11:31.671Z,23.31
2022-08-08T11:16:34.542Z,23.06
2022-08-08T11:21:54.283Z,23.23
2022-08-08T11:27:19.498Z,23.36
2022-08-08T11:32:58.455Z,23.83
2022-08-08T11:38:39.601Z,23.87
2022-08-08T11:43:39.015Z,24.67
2022-08-08T11:48:47.808Z,24.71
2022-08-08T11:54:01.241Z,24.73
2022-08-08T11:59:10.246Z,24.65
2022-08-08T12:04:14.300Z,23.73
2022-08-08T12:09:56.458Z,23.96
2022-08-08T12:15:05.164Z,24.04
2022-08-08T12:20:10.518Z,23.93
2022-08-08T12:25:31.039Z,23.17
2022-08-08T12:30:36.085Z,23.39
2022-08-08T12:35:41.605Z,23.66
2022-08-08T12:41:18.343Z,23.85
2022-08-08T12:46:32.876Z,23.69
2022-08-08T12:51:49.610Z,23.51
2022-08-08T12:56:56.078Z,24.00
2022-08-08T13:02:02.871Z,24.42
2022-08-08T13:07:16.782Z,24.95
2022-08-08T13:12:30.311Z,24.69
2022-08-08T13:18:09.150Z,24.64
2022-08-08T13:23:31.332Z,24.66
2022-08-08T13:28:32.575Z,24.98
2022-08-08T13:33:42.166Z,25.97
2022-08-08T13:38:47.033Z,25.70
2022-08-08T13:43:52.489Z,25.56
2022-08-08T13:50:34.573Z,25.69
2022-08-08T13:54:31.405Z,25.67
2022-08-08T13:59:44.359Z,25.16
2022-08-08T14:04:55.194Z,25.48
2022-08-08T14:10:11.644Z,24.94
2022-08-08T14:15:39.621Z,24.95
2022-08-08T14:20:57.255Z,25.45
2022-08-08T14:26:10.532Z,25.03
2022-08-08T14:31:23.306Z,24.82
2022-08-08T14:36:53.422Z,24.73
2022-08-08T14:42:03.496Z,24.64
2022-08-08T14:47:21.234Z,24.69
2022-08-08T14:52:25.845Z,25.05
2022-08-08T14:58:03.215Z,24.34
2022-08-08T15:03:01.739Z,24.58
2022-08-08T15:08:22.134Z,24.38
2022-08-08T15:13:40.647Z,25.02
2022-08-08T15:19:03.393Z,25.16
2022-08-08T15:24:12.654Z,25.36
2022-08-08T15:29:22.544Z,25.31
2022-08-08T15:34:32.149Z,25.61
2022-08-08T15:39:39.628Z,26.28
2022-08-08T15:44:43.845Z,25.52
2022-08-08T15:49:50.732Z,25.39
2022-08-08T15:54:55.488Z,25.58
2022-08-08T16:00:05.748Z,25.77
2022-08-08T16:05:23.872Z,23.77
2022-08-08T16:13:04.198Z,24.16
2022-08-08T16:15:59.133Z,24.04
2022-08-08T16:21:20.571Z,23.44
2022-08-08T16:26:35.398Z,22.59
2022-08-08T16:31:44.705Z,22.45
2022-08-08T16:36:53.999Z,22.08
2022-08-08T16:42:01.307Z,22.10
2022-08-08T16:47:21.940Z,22.04
2022-08-08T16:55:03.232Z,22.38
2022-08-08T16:58:14.496Z,22.57
2022-08-08T17:03:25.475Z,22.69
2022-08-08T17:08:46.527Z,23.04
2022-08-08T17:14:01.785Z,22.56
2022-08-08T17:19:06.037Z,22.43
2022-08-08T17:24:26.965Z,22.85
2022-08-08T17:29:36.315Z,22.31
2022-08-08T17:35:44.463Z,22.56
2022-08-08T17:40:16.283Z,22.24
2022-08-08T17:45:22.606Z,21.88
2022-08-08T17:50:27.950Z,22.08
2022-08-08T17:56:06.728Z,21.80
2022-08-08T18:00:57.581Z,21.87
2022-08-08T18:06:01.599Z,21.92
2022-08-08T18:11:11.936Z,22.10
2022-08-08T18:16:23.454Z,22.21
2022-08-08T18:22:00.366Z,22.03
2022-08-08T18:26:57.142Z,22.16
2022-08-08T18:32:03.426Z,22.60
2022-08-08T18:37:09.550Z,22.60
2022-08-08T18:42:16.532Z,22.53
2022-08-08T18:47:21.716Z,22.41
2022-08-08T18:52:27.997Z,22.83
2022-08-08T18:57:40.841Z,22.72
2022-08-08T19:02:54.784Z,22.43
2022-08-08T19:08:00.741Z,22.57
2022-08-08T19:13:10.761Z,22.80
2022-08-08T19:18:33.276Z,22.47
2022-08-08T19:23:51.391Z,22.28
2022-08-08T19:28:56.448Z,22.20
2022-08-08T19:34:15.209Z,22.18
2022-08-08T19:39:30.922Z,22.01
2022-08-08T19:44:45.376Z,21.85
2022-08-08T19:50:00.204Z,21.69
2022-08-08T19:55:08.952Z,21.79
2022-08-08T20:00:29.004Z,22.03
2022-08-08T20:06:14.475Z,21.93
2022-08-08T20:10:59.119Z,21.99
2022-08-08T20:16:04.877Z,22.17
2022-08-08T20:21:10.828Z,22.15
2022-08-08T20:26:14.828Z,22.05
2022-08-08T20:31:20.368Z,21.68
2022-08-08T20:36:25.192Z,21.31
2022-08-08T20:41:31.227Z,21.47
2022-08-08T20:46:39.111Z,21.41
2022-08-08T20:51:52.885Z,21.14
2022-08-08T20:57:04.626Z,21.31
2022-08-08T21:02:25.922Z,21.28
2022-08-08T21:08:07.908Z,21.31
2022-08-08T21:12:54.843Z,21.11
2022-08-08T21:18:00.289Z,21.18
2022-08-08T21:23:05.253Z,21.00
2022-08-08T21:28:15.029Z,20.91
2022-08-08T21:33:21.747Z,20.75
2022-08-08T21:38:25.751Z,20.89
2022-08-08T21:43:33.414Z,21.29
2022-08-08T21:48:41.613Z,21.26
2022-08-08T21:54:34.121Z,21.00
2022-08-08T21:59:17.033Z,20.97
2022-08-08T22:04:26.316Z,21.00
2022-08-08T22:09:37.538Z,20.65
2022-08-08T22:14:47.297Z,20.59
2022-08-08T22:20:13.103Z,21.04
2022-08-08T22:25:25.125Z,20.59
2022-08-08T22:30:30.045Z,20.74
2022-08-08T22:36:05.198Z,19.68
2022-08-08T22:40:59.477Z,19.60
2022-08-08T22:46:04.347Z,19.71
2022-08-08T22:51:09.588Z,20.08
2022-08-08T22:56:13.569Z,20.11
2022-08-08T23:02:03.076Z,20.40
2022-08-08T23:06:42.968Z,20.20
2022-08-08T23:12:17.903Z,19.65
2022-08-08T23:17:14.625Z,19.58
2022-08-08T23:30:19.902Z,18.75
2022-08-08T23:35:23.537Z,18.68
2022-08-08T23:40:28.333Z,19.11
2022-08-08T23:49:07.121Z,19.33
2022-08-08T23:50:59.283Z,19.41
2022-08-08T23:56:04.834Z,19.48
